sensor_id;sensor_type;location;lat;lon;timestamp;pressure;altitude;pressure_sealevel;temperature;humidity
44127;BME280;29786;50.798;7.302;2022-12-16T00:00:39;98500;;;-6.35;100
44127;BME280;29786;50.798;7.302;2022-12-16T00:01:39;98500;;;-6.34;100
44127;BME280;29786;50.798;7.302;2022-12-16T00:02:39;98500;;;-6.3;100
44127;BME280;29786;50.798;7.302;2022-12-16T00:03:39;98500;;;-6.26;100
44127;BME280;29786;50.798;7.302;2022-12-16T00:04:39;98500;;;-6.27;100
44127;BME280;29786;50.798;7.302;2022-12-16T00:05:39;98510;;;-6.25;100
44127;BME280;29786;50.798;7.302;2022-12-16T00:06:39;98510;;;-6.18;100
44127;BME280;29786;50.798;7.302;2022-12-16T00:07:39;98510;;;-6.22;100
44127;BME280;29786;50.798;7.302;2022-12-16T00:08:39;98510;;;-6.28;100
44127;BME280;29786;50.798;7.302;2022-12-16T00:09:39;98510;;;-6.27;100
44127;BME280;29786;50.798;7.302;2022-12-16T00:10:39;98500;;;-6.29;100
44127;BME280;29786;50.798;7.302;2022-12-16T00:11:39;98510;;;-6.22;100
44127;BME280;29786;50.798;7.302;2022-12-16T00:12:39;98500;;;-6.17;100
44127;BME280;29786;50.798;7.302;2022-12-16T00:13:39;98500;;;-6.03;100
44127;BME280;29786;50.798;7.302;2022-12-16T00:14:39;98500;;;-5.98;100
44127;BME280;29786;50.798;7.302;2022-12-16T00:15:39;98510;;;-6.04;100
44127;BME280;29786;50.798;7.302;2022-12-16T00:16:39;98510;;;-6.16;100
44127;BME280;29786;50.798;7.302;2022-12-16T00:17:39;98510;;;-6.21;100
44127;BME280;29786;50.798;7.302;2022-12-16T00:18:39;98500;;;-6.26;100
44127;BME280;29786;50.798;7.302;2022-12-16T00:19:39;98510;;;-6.16;100
44127;BME280;29786;50.798;7.302;2022-12-16T00:20:43;98500;;;-6.04;100
44127;BME280;29786;50.798;7.302;2022-12-16T00:21:39;98510;;;-5.98;100
44127;BME280;29786;50.798;7.302;2022-12-16T00:22:39;98500;;;-5.97;100
44127;BME280;29786;50.798;7.302;2022-12-16T00:23:39;98500;;;-5.95;100
44127;BME280;29786;50.798;7.302;2022-12-16T00:24:39;98510;;;-6.01;100
44127;BME280;29786;50.798;7.302;2022-12-16T00:25:40;98510;;;-6.18;100
44127;BME280;29786;50.798;7.302;2022-12-16T00:26:39;98510;;;-6.39;100
44127;BME280;29786;50.798;7.302;2022-12-16T00:27:39;98510;;;-6.49;100
44127;BME280;29786;50.798;7.302;2022-12-16T00:28:39;98520;;;-6.51;100
44127;BME280;29786;50.798;7.302;2022-12-16T00:29:39;98510;;;-6.7;100
44127;BME280;29786;50.798;7.302;2022-12-16T00:30:40;98520;;;-7.14;100
44127;BME280;29786;50.798;7.302;2022-12-16T00:31:39;98510;;;-7.08;100
44127;BME280;29786;50.798;7.302;2022-12-16T00:32:39;98510;;;-7.07;100
44127;BME280;29786;50.798;7.302;2022-12-16T00:33:39;98510;;;-6.88;100
44127;BME280;29786;50.798;7.302;2022-12-16T00:34:39;98510;;;-6.72;100
44127;BME280;29786;50.798;7.302;2022-12-16T00:35:39;98510;;;-6.7;100
44127;BME280;29786;50.798;7.302;2022-12-16T00:36:39;98510;;;-6.69;100
44127;BME280;29786;50.798;7.302;2022-12-16T00:37:39;98520;;;-6.92;100
44127;BME280;29786;50.798;7.302;2022-12-16T00:38:39;98520;;;-6.81;100
44127;BME280;29786;50.798;7.302;2022-12-16T00:39:39;98520;;;-6.82;100
44127;BME280;29786;50.798;7.302;2022-12-16T00:40:39;98520;;;-6.84;100
44127;BME280;29786;50.798;7.302;2022-12-16T00:41:39;98520;;;-6.76;100
44127;BME280;29786;50.798;7.302;2022-12-16T00:42:39;98510;;;-6.72;100
44127;BME280;29786;50.798;7.302;2022-12-16T00:43:39;98510;;;-6.58;100
44127;BME280;29786;50.798;7.302;2022-12-16T00:44:39;98510;;;-6.9;100
44127;BME280;29786;50.798;7.302;2022-12-16T00:45:39;98520;;;-6.77;100
44127;BME280;29786;50.798;7.302;2022-12-16T00:46:39;98510;;;-6.74;100
44127;BME280;29786;50.798;7.302;2022-12-16T00:47:39;98510;;;-6.67;100
44127;BME280;29786;50.798;7.302;2022-12-16T00:48:39;98510;;;-6.82;100
44127;BME280;29786;50.798;7.302;2022-12-16T00:49:39;98520;;;-7.05;100
44127;BME280;29786;50.798;7.302;2022-12-16T00:50:39;98520;;;-6.88;100
44127;BME280;29786;50.798;7.302;2022-12-16T00:51:39;98520;;;-6.97;100
44127;BME280;29786;50.798;7.302;2022-12-16T00:52:39;98520;;;-6.92;100
44127;BME280;29786;50.798;7.302;2022-12-16T00:53:39;98520;;;-6.9;100
44127;BME280;29786;50.798;7.302;2022-12-16T00:54:38;98520;;;-6.82;100
44127;BME280;29786;50.798;7.302;2022-12-16T00:55:39;98510;;;-6.7;100
44127;BME280;29786;50.798;7.302;2022-12-16T00:56:39;98510;;;-6.69;100
44127;BME280;29786;50.798;7.302;2022-12-16T00:57:39;98520;;;-6.68;100
44127;BME280;29786;50.798;7.302;2022-12-16T00:58:39;98510;;;-6.71;100
44127;BME280;29786;50.798;7.302;2022-12-16T00:59:39;98510;;;-6.67;100
44127;BME280;29786;50.798;7.302;2022-12-16T01:00:39;98510;;;-6.79;100
44127;BME280;29786;50.798;7.302;2022-12-16T01:01:39;98510;;;-6.66;100
44127;BME280;29786;50.798;7.302;2022-12-16T01:02:39;98510;;;-6.4;100
44127;BME280;29786;50.798;7.302;2022-12-16T01:03:39;98510;;;-6.3;100
44127;BME280;29786;50.798;7.302;2022-12-16T01:04:39;98510;;;-6.3;100
44127;BME280;29786;50.798;7.302;2022-12-16T01:05:39;98510;;;-6.25;100
44127;BME280;29786;50.798;7.302;2022-12-16T01:06:39;98510;;;-6.19;100
44127;BME280;29786;50.798;7.302;2022-12-16T01:07:39;98510;;;-6.14;100
44127;BME280;29786;50.798;7.302;2022-12-16T01:08:39;98510;;;-6.1;100
44127;BME280;29786;50.798;7.302;2022-12-16T01:09:39;98510;;;-5.93;100
44127;BME280;29786;50.798;7.302;2022-12-16T01:10:39;98510;;;-5.91;100
44127;BME280;29786;50.798;7.302;2022-12-16T01:11:39;98510;;;-6.14;100
44127;BME280;29786;50.798;7.302;2022-12-16T01:12:39;98500;;;-6.16;100
44127;BME280;29786;50.798;7.302;2022-12-16T01:13:39;98510;;;-6.09;100
44127;BME280;29786;50.798;7.302;2022-12-16T01:14:39;98510;;;-6.02;100
44127;BME280;29786;50.798;7.302;2022-12-16T01:15:39;98510;;;-6;100
44127;BME280;29786;50.798;7.302;2022-12-16T01:16:39;98510;;;-5.9;100
44127;BME280;29786;50.798;7.302;2022-12-16T01:17:39;98520;;;-5.97;100
44127;BME280;29786;50.798;7.302;2022-12-16T01:18:39;98510;;;-6.17;100
44127;BME280;29786;50.798;7.302;2022-12-16T01:19:39;98510;;;-6.29;100
44127;BME280;29786;50.798;7.302;2022-12-16T01:20:39;98520;;;-6.13;100
44127;BME280;29786;50.798;7.302;2022-12-16T01:21:39;98520;;;-6.18;100
44127;BME280;29786;50.798;7.302;2022-12-16T01:22:39;98520;;;-6.18;100
44127;BME280;29786;50.798;7.302;2022-12-16T01:23:39;98510;;;-6.21;100
44127;BME280;29786;50.798;7.302;2022-12-16T01:24:39;98510;;;-6.26;100
44127;BME280;29786;50.798;7.302;2022-12-16T01:25:39;98520;;;-6.18;100
44127;BME280;29786;50.798;7.302;2022-12-16T01:26:39;98520;;;-6.14;100
44127;BME280;29786;50.798;7.302;2022-12-16T01:27:39;98520;;;-6.13;100
44127;BME280;29786;50.798;7.302;2022-12-16T01:28:39;98520;;;-6.18;100
44127;BME280;29786;50.798;7.302;2022-12-16T01:29:39;98520;;;-6.26;100
44127;BME280;29786;50.798;7.302;2022-12-16T01:30:39;98520;;;-6.19;100
44127;BME280;29786;50.798;7.302;2022-12-16T01:31:39;98530;;;-6.28;100
44127;BME280;29786;50.798;7.302;2022-12-16T01:32:38;98530;;;-6.15;100
44127;BME280;29786;50.798;7.302;2022-12-16T01:33:39;98530;;;-6.14;100
44127;BME280;29786;50.798;7.302;2022-12-16T01:34:39;98530;;;-6.29;100
44127;BME280;29786;50.798;7.302;2022-12-16T01:35:39;98530;;;-6.35;100
44127;BME280;29786;50.798;7.302;2022-12-16T01:36:39;98540;;;-6.35;100
44127;BME280;29786;50.798;7.302;2022-12-16T01:37:39;98530;;;-6.32;100
44127;BME280;29786;50.798;7.302;2022-12-16T01:38:40;98540;;;-6.3;100
44127;BME280;29786;50.798;7.302;2022-12-16T01:39:39;98540;;;-6.34;100
44127;BME280;29786;50.798;7.302;2022-12-16T01:40:39;98540;;;-6.39;100
44127;BME280;29786;50.798;7.302;2022-12-16T01:41:39;98540;;;-6.52;100
44127;BME280;29786;50.798;7.302;2022-12-16T01:42:39;98540;;;-6.52;100
44127;BME280;29786;50.798;7.302;2022-12-16T01:43:39;98540;;;-6.5;100
44127;BME280;29786;50.798;7.302;2022-12-16T01:44:41;98530;;;-6.46;100
44127;BME280;29786;50.798;7.302;2022-12-16T01:45:39;98540;;;-6.47;100
44127;BME280;29786;50.798;7.302;2022-12-16T01:46:39;98540;;;-6.54;100
44127;BME280;29786;50.798;7.302;2022-12-16T01:47:39;98540;;;-6.58;100
44127;BME280;29786;50.798;7.302;2022-12-16T01:49:40;98540;;;-6.53;100
44127;BME280;29786;50.798;7.302;2022-12-16T01:50:39;98540;;;-6.55;100
44127;BME280;29786;50.798;7.302;2022-12-16T01:51:39;98540;;;-6.81;100
44127;BME280;29786;50.798;7.302;2022-12-16T01:52:41;98540;;;-6.85;100
44127;BME280;29786;50.798;7.302;2022-12-16T01:53:39;98550;;;-6.93;100
44127;BME280;29786;50.798;7.302;2022-12-16T01:54:41;98540;;;-6.99;100
44127;BME280;29786;50.798;7.302;2022-12-16T01:55:41;98550;;;-7.02;100
44127;BME280;29786;50.798;7.302;2022-12-16T01:56:39;98550;;;-7.09;100
44127;BME280;29786;50.798;7.302;2022-12-16T01:57:40;98550;;;-7.13;100
44127;BME280;29786;50.798;7.302;2022-12-16T01:58:39;98550;;;-7.24;100
44127;BME280;29786;50.798;7.302;2022-12-16T01:59:39;98550;;;-7.52;100
44127;BME280;29786;50.798;7.302;2022-12-16T02:00:39;98550;;;-7.54;100
44127;BME280;29786;50.798;7.302;2022-12-16T02:01:39;98550;;;-7.45;100
44127;BME280;29786;50.798;7.302;2022-12-16T02:02:39;98550;;;-7.49;100
44127;BME280;29786;50.798;7.302;2022-12-16T02:03:38;98550;;;-7.48;100
44127;BME280;29786;50.798;7.302;2022-12-16T02:04:39;98550;;;-7.51;100
44127;BME280;29786;50.798;7.302;2022-12-16T02:05:39;98550;;;-7.39;100
44127;BME280;29786;50.798;7.302;2022-12-16T02:06:39;98540;;;-7.25;100
44127;BME280;29786;50.798;7.302;2022-12-16T02:07:39;98540;;;-7.2;100
44127;BME280;29786;50.798;7.302;2022-12-16T02:08:39;98540;;;-7.24;100
44127;BME280;29786;50.798;7.302;2022-12-16T02:09:38;98540;;;-7.21;100
44127;BME280;29786;50.798;7.302;2022-12-16T02:10:45;98540;;;-7.11;100
44127;BME280;29786;50.798;7.302;2022-12-16T02:11:50;98540;;;-7.14;100
44127;BME280;29786;50.798;7.302;2022-12-16T02:12:42;98540;;;-7.08;100
44127;BME280;29786;50.798;7.302;2022-12-16T02:13:45;98540;;;-7.01;100
44127;BME280;29786;50.798;7.302;2022-12-16T02:15:16;98550;;;-7.07;100
44127;BME280;29786;50.798;7.302;2022-12-16T02:16:45;98540;;;-6.78;100
44127;BME280;29786;50.798;7.302;2022-12-16T02:16:46;98540;;;-6.88;100
44127;BME280;29786;50.798;7.302;2022-12-16T02:17:51;98540;;;-6.87;100
44127;BME280;29786;50.798;7.302;2022-12-16T02:18:45;98540;;;-6.84;100
44127;BME280;29786;50.798;7.302;2022-12-16T02:19:45;98550;;;-6.96;100
44127;BME280;29786;50.798;7.302;2022-12-16T02:20:47;98540;;;-6.92;100
44127;BME280;29786;50.798;7.302;2022-12-16T02:21:42;98540;;;-6.95;100
44127;BME280;29786;50.798;7.302;2022-12-16T02:24:09;98550;;;-7.06;100
44127;BME280;29786;50.798;7.302;2022-12-16T02:24:45;98550;;;-7.05;100
44127;BME280;29786;50.798;7.302;2022-12-16T02:25:51;98550;;;-7.13;100
44127;BME280;29786;50.798;7.302;2022-12-16T02:26:44;98550;;;-7.09;100
44127;BME280;29786;50.798;7.302;2022-12-16T02:27:48;98540;;;-7.02;100
44127;BME280;29786;50.798;7.302;2022-12-16T02:28:51;98550;;;-7.08;100
44127;BME280;29786;50.798;7.302;2022-12-16T02:30:43;98550;;;-7.09;100
44127;BME280;29786;50.798;7.302;2022-12-16T02:30:46;98550;;;-7.06;100
44127;BME280;29786;50.798;7.302;2022-12-16T02:32:42;98550;;;-6.97;100
44127;BME280;29786;50.798;7.302;2022-12-16T02:33:42;98560;;;-6.96;100
44127;BME280;29786;50.798;7.302;2022-12-16T02:34:57;98550;;;-7.14;100
44127;BME280;29786;50.798;7.302;2022-12-16T02:36:15;98560;;;-7.2;100
44127;BME280;29786;50.798;7.302;2022-12-16T02:36:41;98550;;;-7.27;100
44127;BME280;29786;50.798;7.302;2022-12-16T02:37:41;98550;;;-7.42;100
44127;BME280;29786;50.798;7.302;2022-12-16T02:38:58;98550;;;-7.45;100
44127;BME280;29786;50.798;7.302;2022-12-16T02:39:41;98550;;;-7.43;100
44127;BME280;29786;50.798;7.302;2022-12-16T02:40:45;98550;;;-7.26;100
44127;BME280;29786;50.798;7.302;2022-12-16T02:41:41;98550;;;-7.16;100
44127;BME280;29786;50.798;7.302;2022-12-16T02:42:41;98550;;;-7.15;100
44127;BME280;29786;50.798;7.302;2022-12-16T02:43:46;98550;;;-7.21;100
44127;BME280;29786;50.798;7.302;2022-12-16T02:44:45;98560;;;-7.13;100
44127;BME280;29786;50.798;7.302;2022-12-16T02:45:39;98560;;;-6.98;100
44127;BME280;29786;50.798;7.302;2022-12-16T02:46:40;98560;;;-6.98;100
44127;BME280;29786;50.798;7.302;2022-12-16T02:47:39;98550;;;-7;100
44127;BME280;29786;50.798;7.302;2022-12-16T02:48:39;98560;;;-7.11;100
44127;BME280;29786;50.798;7.302;2022-12-16T02:49:42;98560;;;-7.17;100
44127;BME280;29786;50.798;7.302;2022-12-16T02:50:39;98550;;;-7.03;100
44127;BME280;29786;50.798;7.302;2022-12-16T02:51:39;98550;;;-6.83;100
44127;BME280;29786;50.798;7.302;2022-12-16T02:52:39;98560;;;-6.93;100
44127;BME280;29786;50.798;7.302;2022-12-16T02:53:39;98560;;;-6.93;100
44127;BME280;29786;50.798;7.302;2022-12-16T02:54:39;98560;;;-6.94;100
44127;BME280;29786;50.798;7.302;2022-12-16T02:55:59;98560;;;-6.89;100
44127;BME280;29786;50.798;7.302;2022-12-16T02:56:44;98560;;;-6.86;100
44127;BME280;29786;50.798;7.302;2022-12-16T02:58:46;98560;;;-6.84;100
44127;BME280;29786;50.798;7.302;2022-12-16T02:58:46;98560;;;-6.89;100
44127;BME280;29786;50.798;7.302;2022-12-16T02:59:42;98560;;;-6.9;100
44127;BME280;29786;50.798;7.302;2022-12-16T03:00:44;98560;;;-6.82;100
44127;BME280;29786;50.798;7.302;2022-12-16T03:01:44;98560;;;-6.83;100
44127;BME280;29786;50.798;7.302;2022-12-16T03:03:16;98560;;;-7;100
44127;BME280;29786;50.798;7.302;2022-12-16T03:03:43;98570;;;-7.02;100
44127;BME280;29786;50.798;7.302;2022-12-16T03:04:40;98570;;;-7.01;100
44127;BME280;29786;50.798;7.302;2022-12-16T03:05:39;98570;;;-6.96;100
44127;BME280;29786;50.798;7.302;2022-12-16T03:06:39;98570;;;-6.92;100
44127;BME280;29786;50.798;7.302;2022-12-16T03:07:39;98570;;;-6.93;100
44127;BME280;29786;50.798;7.302;2022-12-16T03:08:39;98560;;;-6.83;100
44127;BME280;29786;50.798;7.302;2022-12-16T03:09:39;98560;;;-6.66;100
44127;BME280;29786;50.798;7.302;2022-12-16T03:10:41;98560;;;-6.66;100
44127;BME280;29786;50.798;7.302;2022-12-16T03:11:39;98550;;;-6.57;100
44127;BME280;29786;50.798;7.302;2022-12-16T03:12:39;98550;;;-6.55;100
44127;BME280;29786;50.798;7.302;2022-12-16T03:13:41;98560;;;-6.61;100
44127;BME280;29786;50.798;7.302;2022-12-16T03:14:41;98560;;;-6.67;100
44127;BME280;29786;50.798;7.302;2022-12-16T03:15:39;98560;;;-6.74;100
44127;BME280;29786;50.798;7.302;2022-12-16T03:16:39;98560;;;-6.64;100
44127;BME280;29786;50.798;7.302;2022-12-16T03:17:38;98550;;;-6.61;100
44127;BME280;29786;50.798;7.302;2022-12-16T03:18:39;98560;;;-6.49;100
44127;BME280;29786;50.798;7.302;2022-12-16T03:19:39;98550;;;-6.52;100
44127;BME280;29786;50.798;7.302;2022-12-16T03:20:40;98550;;;-6.57;100
44127;BME280;29786;50.798;7.302;2022-12-16T03:21:49;98550;;;-6.53;100
44127;BME280;29786;50.798;7.302;2022-12-16T03:22:39;98550;;;-6.53;100
44127;BME280;29786;50.798;7.302;2022-12-16T03:23:42;98550;;;-6.59;100
44127;BME280;29786;50.798;7.302;2022-12-16T03:24:39;98550;;;-6.61;100
44127;BME280;29786;50.798;7.302;2022-12-16T03:25:40;98550;;;-6.69;100
44127;BME280;29786;50.798;7.302;2022-12-16T03:26:50;98550;;;-6.84;100
44127;BME280;29786;50.798;7.302;2022-12-16T03:27:42;98550;;;-6.91;100
44127;BME280;29786;50.798;7.302;2022-12-16T03:28:42;98550;;;-6.9;100
44127;BME280;29786;50.798;7.302;2022-12-16T03:29:41;98550;;;-6.85;100
44127;BME280;29786;50.798;7.302;2022-12-16T03:30:40;98550;;;-6.77;100
44127;BME280;29786;50.798;7.302;2022-12-16T03:31:43;98550;;;-6.92;100
44127;BME280;29786;50.798;7.302;2022-12-16T03:32:40;98550;;;-6.98;100
44127;BME280;29786;50.798;7.302;2022-12-16T03:33:40;98550;;;-6.96;100
44127;BME280;29786;50.798;7.302;2022-12-16T03:34:56;98550;;;-6.78;100
44127;BME280;29786;50.798;7.302;2022-12-16T03:35:42;98550;;;-6.67;100
44127;BME280;29786;50.798;7.302;2022-12-16T03:36:38;98550;;;-6.62;100
44127;BME280;29786;50.798;7.302;2022-12-16T03:37:39;98550;;;-6.69;100
44127;BME280;29786;50.798;7.302;2022-12-16T03:38:39;98550;;;-6.65;100
44127;BME280;29786;50.798;7.302;2022-12-16T03:39:41;98550;;;-6.74;100
44127;BME280;29786;50.798;7.302;2022-12-16T03:40:40;98550;;;-6.75;100
44127;BME280;29786;50.798;7.302;2022-12-16T03:41:39;98570;;;-6.94;100
44127;BME280;29786;50.798;7.302;2022-12-16T03:42:38;98560;;;-6.89;100
44127;BME280;29786;50.798;7.302;2022-12-16T03:43:38;98570;;;-6.89;100
44127;BME280;29786;50.798;7.302;2022-12-16T03:44:39;98570;;;-7.04;100
44127;BME280;29786;50.798;7.302;2022-12-16T03:45:39;98570;;;-7.01;100
44127;BME280;29786;50.798;7.302;2022-12-16T03:46:39;98570;;;-7.06;100
44127;BME280;29786;50.798;7.302;2022-12-16T03:47:39;98570;;;-7.08;100
44127;BME280;29786;50.798;7.302;2022-12-16T03:48:44;98580;;;-7.09;100
44127;BME280;29786;50.798;7.302;2022-12-16T03:49:38;98570;;;-7.26;100
44127;BME280;29786;50.798;7.302;2022-12-16T03:50:39;98580;;;-7.25;100
44127;BME280;29786;50.798;7.302;2022-12-16T03:51:38;98570;;;-7.23;100
44127;BME280;29786;50.798;7.302;2022-12-16T03:52:38;98580;;;-7.19;100
44127;BME280;29786;50.798;7.302;2022-12-16T03:53:38;98580;;;-7.11;100
44127;BME280;29786;50.798;7.302;2022-12-16T03:54:39;98580;;;-7.15;100
44127;BME280;29786;50.798;7.302;2022-12-16T03:55:38;98580;;;-7.06;100
44127;BME280;29786;50.798;7.302;2022-12-16T03:56:38;98580;;;-7.08;100
44127;BME280;29786;50.798;7.302;2022-12-16T03:57:38;98580;;;-7.01;100
44127;BME280;29786;50.798;7.302;2022-12-16T03:58:38;98580;;;-7.01;100
44127;BME280;29786;50.798;7.302;2022-12-16T03:59:38;98580;;;-7.07;100
44127;BME280;29786;50.798;7.302;2022-12-16T04:00:38;98580;;;-7.12;100
44127;BME280;29786;50.798;7.302;2022-12-16T04:01:39;98580;;;-7.07;100
44127;BME280;29786;50.798;7.302;2022-12-16T04:02:39;98580;;;-7.04;100
44127;BME280;29786;50.798;7.302;2022-12-16T04:03:38;98580;;;-7.01;100
44127;BME280;29786;50.798;7.302;2022-12-16T04:04:39;98580;;;-6.93;100
44127;BME280;29786;50.798;7.302;2022-12-16T04:05:38;98580;;;-6.95;100
44127;BME280;29786;50.798;7.302;2022-12-16T04:06:38;98580;;;-6.9;100
44127;BME280;29786;50.798;7.302;2022-12-16T04:07:39;98580;;;-6.83;100
44127;BME280;29786;50.798;7.302;2022-12-16T04:08:38;98580;;;-6.86;100
44127;BME280;29786;50.798;7.302;2022-12-16T04:09:39;98570;;;-7.06;100
44127;BME280;29786;50.798;7.302;2022-12-16T04:10:39;98580;;;-6.93;100
44127;BME280;29786;50.798;7.302;2022-12-16T04:11:38;98570;;;-7.05;100
44127;BME280;29786;50.798;7.302;2022-12-16T04:12:38;98570;;;-6.97;100
44127;BME280;29786;50.798;7.302;2022-12-16T04:13:39;98570;;;-6.87;100
44127;BME280;29786;50.798;7.302;2022-12-16T04:14:39;98570;;;-6.7;100
44127;BME280;29786;50.798;7.302;2022-12-16T04:15:39;98570;;;-6.79;100
44127;BME280;29786;50.798;7.302;2022-12-16T04:16:39;98560;;;-6.69;100
44127;BME280;29786;50.798;7.302;2022-12-16T04:17:39;98560;;;-6.69;100
44127;BME280;29786;50.798;7.302;2022-12-16T04:18:39;98570;;;-6.6;100
44127;BME280;29786;50.798;7.302;2022-12-16T04:19:39;98570;;;-6.53;100
44127;BME280;29786;50.798;7.302;2022-12-16T04:20:41;98570;;;-6.58;100
44127;BME280;29786;50.798;7.302;2022-12-16T04:21:39;98570;;;-6.54;100
44127;BME280;29786;50.798;7.302;2022-12-16T04:22:39;98570;;;-6.53;100
44127;BME280;29786;50.798;7.302;2022-12-16T04:23:45;98570;;;-6.57;100
44127;BME280;29786;50.798;7.302;2022-12-16T04:24:39;98580;;;-6.75;100
44127;BME280;29786;50.798;7.302;2022-12-16T04:25:39;98570;;;-6.72;100
44127;BME280;29786;50.798;7.302;2022-12-16T04:26:38;98580;;;-6.79;100
44127;BME280;29786;50.798;7.302;2022-12-16T04:27:39;98580;;;-6.75;100
44127;BME280;29786;50.798;7.302;2022-12-16T04:28:38;98590;;;-6.89;100
44127;BME280;29786;50.798;7.302;2022-12-16T04:29:38;98590;;;-6.96;100
44127;BME280;29786;50.798;7.302;2022-12-16T04:30:39;98590;;;-6.98;100
44127;BME280;29786;50.798;7.302;2022-12-16T04:31:38;98590;;;-6.92;100
44127;BME280;29786;50.798;7.302;2022-12-16T04:32:39;98600;;;-6.96;100
44127;BME280;29786;50.798;7.302;2022-12-16T04:33:39;98590;;;-6.93;100
44127;BME280;29786;50.798;7.302;2022-12-16T04:34:38;98590;;;-7.02;100
44127;BME280;29786;50.798;7.302;2022-12-16T04:35:39;98590;;;-7.17;100
44127;BME280;29786;50.798;7.302;2022-12-16T04:36:39;98590;;;-7.09;100
44127;BME280;29786;50.798;7.302;2022-12-16T04:37:38;98590;;;-7.05;100
44127;BME280;29786;50.798;7.302;2022-12-16T04:38:38;98590;;;-7.31;100
44127;BME280;29786;50.798;7.302;2022-12-16T04:39:38;98590;;;-7.29;100
44127;BME280;29786;50.798;7.302;2022-12-16T04:40:39;98590;;;-7.19;100
44127;BME280;29786;50.798;7.302;2022-12-16T04:41:38;98590;;;-7.13;100
44127;BME280;29786;50.798;7.302;2022-12-16T04:42:38;98600;;;-7.13;100
44127;BME280;29786;50.798;7.302;2022-12-16T04:43:39;98590;;;-7;100
44127;BME280;29786;50.798;7.302;2022-12-16T04:44:38;98600;;;-6.8;100
44127;BME280;29786;50.798;7.302;2022-12-16T04:45:38;98600;;;-6.8;100
44127;BME280;29786;50.798;7.302;2022-12-16T04:46:39;98590;;;-6.84;100
44127;BME280;29786;50.798;7.302;2022-12-16T04:47:39;98590;;;-6.82;100
44127;BME280;29786;50.798;7.302;2022-12-16T04:48:39;98590;;;-6.99;100
44127;BME280;29786;50.798;7.302;2022-12-16T04:49:38;98600;;;-6.95;100
44127;BME280;29786;50.798;7.302;2022-12-16T04:50:39;98600;;;-7.09;100
44127;BME280;29786;50.798;7.302;2022-12-16T04:51:38;98600;;;-7;100
44127;BME280;29786;50.798;7.302;2022-12-16T04:52:38;98600;;;-7.09;100
44127;BME280;29786;50.798;7.302;2022-12-16T04:53:39;98600;;;-6.96;100
44127;BME280;29786;50.798;7.302;2022-12-16T04:54:39;98600;;;-6.91;100
44127;BME280;29786;50.798;7.302;2022-12-16T04:55:39;98600;;;-7.09;100
44127;BME280;29786;50.798;7.302;2022-12-16T04:56:39;98600;;;-7.24;100
44127;BME280;29786;50.798;7.302;2022-12-16T04:57:38;98600;;;-7.36;100
44127;BME280;29786;50.798;7.302;2022-12-16T04:58:38;98610;;;-7.43;100
44127;BME280;29786;50.798;7.302;2022-12-16T04:59:38;98600;;;-7.55;100
44127;BME280;29786;50.798;7.302;2022-12-16T05:00:39;98610;;;-7.67;100
44127;BME280;29786;50.798;7.302;2022-12-16T05:01:38;98620;;;-7.59;100
44127;BME280;29786;50.798;7.302;2022-12-16T05:02:38;98620;;;-7.54;100
44127;BME280;29786;50.798;7.302;2022-12-16T05:03:39;98620;;;-7.51;100
44127;BME280;29786;50.798;7.302;2022-12-16T05:04:38;98620;;;-7.49;100
44127;BME280;29786;50.798;7.302;2022-12-16T05:05:38;98620;;;-7.5;100
44127;BME280;29786;50.798;7.302;2022-12-16T05:06:38;98620;;;-7.66;100
44127;BME280;29786;50.798;7.302;2022-12-16T05:07:38;98620;;;-7.72;100
44127;BME280;29786;50.798;7.302;2022-12-16T05:08:39;98620;;;-7.7;100
44127;BME280;29786;50.798;7.302;2022-12-16T05:09:38;98620;;;-7.75;100
44127;BME280;29786;50.798;7.302;2022-12-16T05:10:39;98630;;;-7.65;100
44127;BME280;29786;50.798;7.302;2022-12-16T05:11:39;98630;;;-7.68;100
44127;BME280;29786;50.798;7.302;2022-12-16T05:12:38;98630;;;-7.75;100
44127;BME280;29786;50.798;7.302;2022-12-16T05:13:39;98630;;;-7.55;100
44127;BME280;29786;50.798;7.302;2022-12-16T05:14:38;98630;;;-7.63;100
44127;BME280;29786;50.798;7.302;2022-12-16T05:15:38;98640;;;-7.86;100
44127;BME280;29786;50.798;7.302;2022-12-16T05:16:39;98630;;;-7.8;100
44127;BME280;29786;50.798;7.302;2022-12-16T05:17:38;98630;;;-7.84;100
44127;BME280;29786;50.798;7.302;2022-12-16T05:18:39;98640;;;-7.75;100
44127;BME280;29786;50.798;7.302;2022-12-16T05:19:39;98640;;;-7.61;100
44127;BME280;29786;50.798;7.302;2022-12-16T05:20:38;98640;;;-7.64;100
44127;BME280;29786;50.798;7.302;2022-12-16T05:21:38;98640;;;-7.51;100
44127;BME280;29786;50.798;7.302;2022-12-16T05:22:38;98640;;;-7.42;100
44127;BME280;29786;50.798;7.302;2022-12-16T05:23:38;98640;;;-7.39;100
44127;BME280;29786;50.798;7.302;2022-12-16T05:24:38;98640;;;-7.4;100
44127;BME280;29786;50.798;7.302;2022-12-16T05:25:38;98640;;;-7.41;100
44127;BME280;29786;50.798;7.302;2022-12-16T05:26:39;98640;;;-7.41;100
44127;BME280;29786;50.798;7.302;2022-12-16T05:27:38;98640;;;-7.33;100
44127;BME280;29786;50.798;7.302;2022-12-16T05:28:38;98640;;;-7.41;100
44127;BME280;29786;50.798;7.302;2022-12-16T05:29:38;98640;;;-7.34;100
44127;BME280;29786;50.798;7.302;2022-12-16T05:30:38;98640;;;-7.33;100
44127;BME280;29786;50.798;7.302;2022-12-16T05:31:38;98640;;;-7.41;100
44127;BME280;29786;50.798;7.302;2022-12-16T05:32:38;98640;;;-7.37;100
44127;BME280;29786;50.798;7.302;2022-12-16T05:33:39;98640;;;-7.32;100
44127;BME280;29786;50.798;7.302;2022-12-16T05:34:39;98650;;;-7.35;100
44127;BME280;29786;50.798;7.302;2022-12-16T05:35:38;98650;;;-7.43;100
44127;BME280;29786;50.798;7.302;2022-12-16T05:36:38;98650;;;-7.52;100
44127;BME280;29786;50.798;7.302;2022-12-16T05:37:38;98650;;;-7.56;100
44127;BME280;29786;50.798;7.302;2022-12-16T05:38:38;98650;;;-7.59;100
44127;BME280;29786;50.798;7.302;2022-12-16T05:39:38;98650;;;-7.59;100
44127;BME280;29786;50.798;7.302;2022-12-16T05:40:38;98660;;;-7.72;100
44127;BME280;29786;50.798;7.302;2022-12-16T05:41:39;98660;;;-7.7;100
44127;BME280;29786;50.798;7.302;2022-12-16T05:42:39;98660;;;-7.75;100
44127;BME280;29786;50.798;7.302;2022-12-16T05:43:38;98660;;;-7.68;100